Time;durP1;ratioP1;P1;durP2;ratioP2;P2;SDS_P1;SDS_P2;PMS_P1;PMS_P2;Temp;Humidity;BMP_temperature;BMP_pressure;BME280_temperature;BME280_humidity;BME280_pressure;Samples;Min_cycle;Max_cycle;Signal;HPM_P1;HPM_P2
2022/08/14 00:00:46;;;;;;;3.17;1.92;;;20.40;68.10;;;;;;4992598;28;20529;-70
2022/08/14 00:03:21;;;;;;;3.28;2.10;;;20.40;68.20;;;;;;4992751;28;20026;-71
2022/08/14 00:05:47;;;;;;;3.17;2.58;;;20.30;68.40;;;;;;4992710;28;20097;-68
2022/08/14 00:08:13;;;;;;;6.45;3.25;;;20.30;68.50;;;;;;4978231;28;20168;-68
2022/08/14 00:10:39;;;;;;;3.33;2.00;;;20.30;68.70;;;;;;4988436;28;20476;-68
2022/08/14 00:13:05;;;;;;;2.60;2.17;;;20.20;68.60;;;;;;4984164;28;20506;-70
2022/08/14 00:15:33;;;;;;;7.70;2.65;;;20.20;68.70;;;;;;4992588;28;20036;-68
2022/08/14 00:17:59;;;;;;;4.22;2.20;;;20.20;68.80;;;;;;4991267;28;20033;-68
2022/08/14 00:20:29;;;;;;;3.13;2.10;;;20.10;68.90;;;;;;4991297;28;20113;-68
2022/08/14 00:22:54;;;;;;;4.40;2.05;;;20.10;69.00;;;;;;4991036;28;20026;-67
2022/08/14 00:25:20;;;;;;;7.32;2.55;;;19.90;69.30;;;;;;4991166;28;20022;-67
2022/08/14 00:27:46;;;;;;;4.45;2.50;;;19.90;69.60;;;;;;4991527;28;20074;-68
2022/08/14 00:30:13;;;;;;;2.70;2.40;;;19.90;69.80;;;;;;4992528;28;20053;-69
2022/08/14 00:32:39;;;;;;;3.28;2.15;;;19.80;70.00;;;;;;4992632;28;20026;-68
2022/08/14 00:35:07;;;;;;;5.63;2.45;;;19.80;70.10;;;;;;4992402;28;20360;-68
2022/08/14 00:37:41;;;;;;;3.97;2.20;;;19.70;70.20;;;;;;4991011;28;20030;-68
2022/08/14 00:40:09;;;;;;;2.50;2.20;;;19.70;70.30;;;;;;4992358;28;20045;-68
2022/08/14 00:42:35;;;;;;;3.63;2.05;;;19.70;70.40;;;;;;4985533;28;20034;-70
2022/08/14 00:45:01;;;;;;;4.57;2.85;;;19.60;70.40;;;;;;4983299;28;20464;-69
2022/08/14 00:47:27;;;;;;;3.58;2.63;;;19.60;70.60;;;;;;4985578;28;20030;-72
2022/08/14 00:49:55;;;;;;;4.05;2.20;;;19.60;70.50;;;;;;4988221;28;20031;-70
2022/08/14 00:52:21;;;;;;;3.53;2.10;;;19.60;70.60;;;;;;4988355;28;20040;-72
2022/08/14 00:54:53;;;;;;;3.88;2.10;;;19.60;70.70;;;;;;4989745;28;20030;-70
2022/08/14 00:57:23;;;;;;;3.03;2.08;;;19.50;71.00;;;;;;4988610;28;20026;-70
2022/08/14 00:59:50;;;;;;;3.97;2.17;;;19.40;71.30;;;;;;4987606;28;20660;-69
2022/08/14 01:02:18;;;;;;;4.43;2.15;;;19.30;71.40;;;;;;4988301;28;20379;-71
2022/08/14 01:04:45;;;;;;;5.40;2.28;;;19.30;71.50;;;;;;4989697;28;20053;-69
2022/08/14 01:07:19;;;;;;;3.22;2.47;;;19.30;71.70;;;;;;4983686;28;20046;-69
2022/08/14 01:09:50;;;;;;;4.10;2.20;;;19.20;71.80;;;;;;4985441;28;20407;-69
2022/08/14 01:12:17;;;;;;;3.90;2.33;;;19.20;72.10;;;;;;4985376;28;20629;-72
2022/08/14 01:14:43;;;;;;;4.20;2.30;;;19.20;72.10;;;;;;4988519;28;20074;-70
2022/08/14 01:17:09;;;;;;;3.92;2.20;;;19.20;72.30;;;;;;4987926;28;20447;-69
2022/08/14 01:22:19;;;;;;;6.00;2.72;;;19.20;72.30;;;;;;4986505;28;20037;-68
2022/08/14 01:24:46;;;;;;;3.38;2.33;;;19.20;72.50;;;;;;4985200;28;20031;-69
2022/08/14 01:27:20;;;;;;;3.80;2.72;;;19.20;72.50;;;;;;4985409;28;20109;-69
2022/08/14 01:29:48;;;;;;;3.92;2.22;;;19.20;72.60;;;;;;4989336;28;20026;-72
2022/08/14 01:32:17;;;;;;;4.35;2.47;;;19.10;72.60;;;;;;4978279;28;20041;-72
2022/08/14 01:34:46;;;;;;;4.40;2.10;;;19.10;72.70;;;;;;4977527;28;20037;-71
2022/08/14 01:37:11;;;;;;;4.60;3.13;;;19.00;72.90;;;;;;4987040;28;20026;-69
2022/08/14 01:39:37;;;;;;;6.40;2.83;;;19.00;73.50;;;;;;4986169;28;20084;-69
2022/08/14 01:42:04;;;;;;;4.85;3.78;;;19.00;74.00;;;;;;4986618;28;20030;-70
2022/08/14 01:44:30;;;;;;;5.57;3.55;;;19.00;74.80;;;;;;4986574;28;20118;-69
2022/08/14 01:46:58;;;;;;;5.88;3.90;;;19.00;75.20;;;;;;4989793;28;20109;-70
2022/08/14 01:49:24;;;;;;;6.00;4.03;;;19.00;75.50;;;;;;4986515;28;20026;-71
2022/08/14 01:51:55;;;;;;;10.43;4.53;;;19.00;75.60;;;;;;4985411;28;20586;-70
2022/08/14 01:54:22;;;;;;;6.72;3.92;;;19.00;75.60;;;;;;4984297;28;20027;-69
2022/08/14 01:56:55;;;;;;;6.80;4.20;;;18.90;75.60;;;;;;4988305;28;20068;-70
2022/08/14 01:59:31;;;;;;;4.90;3.72;;;18.90;75.80;;;;;;4989771;28;20045;-69
2022/08/14 02:02:04;;;;;;;9.00;3.40;;;18.90;75.90;;;;;;4982308;28;20462;-71
2022/08/14 02:04:34;;;;;;;5.43;3.00;;;18.80;75.70;;;;;;4985461;28;20026;-69
2022/08/14 02:07:02;;;;;;;5.40;3.05;;;18.80;75.60;;;;;;4985525;28;20045;-71
2022/08/14 02:09:36;;;;;;;4.43;2.95;;;18.70;75.60;;;;;;4989461;28;20037;-71
2022/08/14 02:12:04;;;;;;;5.35;2.65;;;18.70;75.70;;;;;;4985037;28;20050;-73
2022/08/14 02:14:30;;;;;;;4.25;3.03;;;18.70;75.80;;;;;;4983214;28;20027;-69
2022/08/14 02:16:56;;;;;;;3.80;2.95;;;18.60;75.80;;;;;;4987158;28;20037;-70
2022/08/14 02:19:26;;;;;;;3.47;2.90;;;18.60;75.90;;;;;;4976118;28;20038;-73
2022/08/14 02:21:54;;;;;;;3.42;2.78;;;18.60;75.90;;;;;;4980705;28;20034;-69
2022/08/14 02:24:22;;;;;;;4.93;3.08;;;18.50;75.90;;;;;;5002835;28;20089;-69
2022/08/14 02:26:50;;;;;;;5.63;3.17;;;18.50;75.80;;;;;;4984487;28;20026;-69
2022/08/14 02:29:20;;;;;;;5.35;3.17;;;18.40;75.70;;;;;;4988920;28;20030;-69
2022/08/14 02:31:50;;;;;;;3.30;2.85;;;18.40;75.90;;;;;;4988074;28;20026;-70
2022/08/14 02:34:22;;;;;;;4.63;2.97;;;18.40;76.20;;;;;;4985305;28;20731;-69
2022/08/14 02:36:50;;;;;;;6.07;2.70;;;18.40;76.10;;;;;;4984475;28;20030;-69
2022/08/14 02:39:16;;;;;;;2.90;2.38;;;18.30;76.10;;;;;;4983267;28;20092;-69
2022/08/14 02:41:42;;;;;;;3.85;2.60;;;18.30;76.00;;;;;;4985688;28;20399;-68
2022/08/14 02:44:09;;;;;;;4.18;2.70;;;18.30;76.00;;;;;;4985954;28;20031;-74
2022/08/14 02:46:40;;;;;;;4.30;2.63;;;18.20;76.00;;;;;;4985099;28;20150;-74
2022/08/14 02:49:06;;;;;;;3.53;2.20;;;18.20;75.80;;;;;;4984410;28;20140;-73
2022/08/14 02:51:33;;;;;;;6.50;2.50;;;18.30;75.60;;;;;;4978795;28;20030;-76
2022/08/14 02:54:00;;;;;;;2.78;2.20;;;18.20;75.40;;;;;;4987618;28;20022;-74
2022/08/14 02:56:26;;;;;;;4.28;3.00;;;18.20;75.50;;;;;;4987838;28;20022;-74
2022/08/14 02:58:53;;;;;;;5.45;2.63;;;18.10;75.40;;;;;;4988685;28;21089;-74
2022/08/14 03:01:21;;;;;;;3.88;2.28;;;18.10;75.60;;;;;;4985448;28;20026;-74
2022/08/14 03:03:48;;;;;;;3.25;2.58;;;18.00;75.80;;;;;;4988633;28;20022;-73
2022/08/14 03:06:15;;;;;;;2.20;1.98;;;18.00;75.90;;;;;;4986102;28;20035;-74
2022/08/14 03:08:42;;;;;;;3.38;2.30;;;18.00;76.20;;;;;;4987053;28;20109;-74
2022/08/14 03:11:10;;;;;;;2.97;2.38;;;17.90;76.30;;;;;;4999587;28;20066;-74
2022/08/14 03:13:46;;;;;;;3.53;2.42;;;17.90;76.50;;;;;;4986018;28;20438;-74
2022/08/14 03:16:14;;;;;;;2.83;2.20;;;17.80;76.40;;;;;;4986925;28;20055;-73
2022/08/14 03:18:43;;;;;;;3.15;2.33;;;17.70;76.50;;;;;;4984678;28;20373;-74
2022/08/14 03:21:12;;;;;;;2.65;2.38;;;17.70;76.60;;;;;;4986516;28;20097;-74
2022/08/14 03:23:39;;;;;;;2.55;2.10;;;17.70;76.80;;;;;;4986574;28;20026;-74
2022/08/14 03:26:11;;;;;;;3.55;2.60;;;17.60;76.80;;;;;;4986649;28;20030;-73
2022/08/14 03:28:40;;;;;;;6.10;2.97;;;17.60;77.10;;;;;;4986362;28;20105;-74
2022/08/14 03:31:07;;;;;;;4.57;2.92;;;17.60;77.20;;;;;;4988226;28;20101;-74
2022/08/14 03:33:36;;;;;;;3.88;2.65;;;17.50;77.50;;;;;;4986979;28;20030;-73
2022/08/14 03:36:07;;;;;;;3.88;2.90;;;17.50;77.80;;;;;;4986369;28;20060;-74
2022/08/14 03:38:33;;;;;;;3.10;2.50;;;17.50;77.80;;;;;;4985066;28;20046;-73
2022/08/14 03:40:58;;;;;;;5.43;2.92;;;17.40;77.90;;;;;;4986736;28;20507;-73
2022/08/14 03:43:25;;;;;;;4.30;3.08;;;17.40;78.50;;;;;;4985748;28;20034;-73
2022/08/14 03:45:51;;;;;;;6.78;3.22;;;17.40;79.20;;;;;;4988090;28;20074;-73
2022/08/14 03:48:20;;;;;;;5.10;3.45;;;17.40;79.50;;;;;;4982422;28;20053;-74
2022/08/14 03:50:50;;;;;;;5.28;4.00;;;17.40;80.00;;;;;;4983921;28;20061;-73
2022/08/14 03:53:17;;;;;;;4.45;3.65;;;17.30;80.00;;;;;;4988078;28;20077;-74
2022/08/14 03:55:43;;;;;;;6.32;3.70;;;17.40;80.40;;;;;;4989787;28;20480;-74
2022/08/14 03:58:09;;;;;;;9.65;3.55;;;17.30;80.40;;;;;;4988114;28;20026;-74
2022/08/14 04:00:36;;;;;;;7.00;3.70;;;17.20;80.60;;;;;;4981545;28;20058;-74
2022/08/14 04:03:04;;;;;;;4.85;3.63;;;17.20;80.80;;;;;;4987006;28;20492;-73
2022/08/14 04:05:31;;;;;;;4.10;3.50;;;17.10;80.90;;;;;;4985836;28;20026;-73
2022/08/14 04:07:57;;;;;;;5.05;3.78;;;17.10;81.10;;;;;;4979237;28;20031;-74
2022/08/14 04:10:23;;;;;;;5.45;3.45;;;17.10;81.30;;;;;;4985943;28;20034;-74
2022/08/14 04:12:49;;;;;;;5.95;3.47;;;17.10;81.40;;;;;;4988722;28;20042;-74
2022/08/14 04:15:20;;;;;;;5.97;3.70;;;17.10;81.50;;;;;;4985221;28;20407;-73
2022/08/14 04:17:45;;;;;;;3.70;3.05;;;17.00;81.60;;;;;;4984683;28;20021;-74
2022/08/14 04:20:11;;;;;;;4.55;3.42;;;17.00;81.60;;;;;;4990528;28;20026;-74
2022/08/14 04:22:42;;;;;;;4.10;3.45;;;17.00;81.80;;;;;;4993446;28;20038;-73
2022/08/14 04:25:08;;;;;;;8.45;3.50;;;17.00;81.90;;;;;;4986351;28;20030;-73
2022/08/14 04:27:35;;;;;;;7.20;3.95;;;16.90;82.10;;;;;;4992390;28;20022;-74
2022/08/14 04:30:01;;;;;;;4.60;3.20;;;16.90;82.30;;;;;;4991161;28;20499;-74
2022/08/14 04:32:27;;;;;;;4.53;3.70;;;16.90;82.30;;;;;;4990711;28;20372;-74
2022/08/14 04:34:53;;;;;;;4.10;3.47;;;16.90;82.50;;;;;;4993318;28;20037;-74
2022/08/14 04:45:40;;;;;;;10.05;3.80;;;16.80;82.70;;;;;;4991102;28;20037;-75
2022/08/14 04:48:12;;;;;;;5.75;3.78;;;16.80;82.70;;;;;;4989468;28;20026;-74
2022/08/14 04:50:46;;;;;;;6.85;3.70;;;16.80;82.50;;;;;;4988088;28;20029;-74
2022/08/14 04:53:16;;;;;;;4.35;3.35;;;16.80;82.60;;;;;;4991461;28;20027;-74
2022/08/14 04:55:47;;;;;;;4.30;3.75;;;16.80;82.60;;;;;;5005700;28;20026;-74
2022/08/14 04:58:17;;;;;;;4.95;3.67;;;16.90;82.50;;;;;;4987515;28;20026;-74
2022/08/14 05:00:49;;;;;;;4.07;3.60;;;16.90;82.50;;;;;;4985903;28;20031;-74
2022/08/14 05:03:19;;;;;;;6.78;3.47;;;16.90;82.40;;;;;;4985685;28;20026;-74
2022/08/14 05:05:49;;;;;;;3.60;2.97;;;16.90;82.20;;;;;;4984117;28;20034;-74
2022/08/14 05:08:15;;;;;;;6.35;3.28;;;17.00;82.30;;;;;;4986725;28;20463;-73
2022/08/14 05:10:49;;;;;;;5.63;3.55;;;17.00;82.30;;;;;;4990039;28;20058;-73
2022/08/14 05:13:15;;;;;;;4.53;3.13;;;17.00;82.10;;;;;;4984545;28;20030;-73
2022/08/14 05:15:41;;;;;;;5.10;3.30;;;17.10;81.80;;;;;;4990411;28;20530;-73
2022/08/14 05:18:12;;;;;;;4.20;3.42;;;17.30;81.60;;;;;;5003192;28;20030;-73
2022/08/14 05:20:44;;;;;;;9.82;3.58;;;17.40;81.10;;;;;;4985422;28;20022;-73
2022/08/14 05:23:15;;;;;;;5.15;3.00;;;17.60;80.60;;;;;;4989522;28;20022;-73
2022/08/14 05:25:41;;;;;;;4.97;3.00;;;17.70;80.30;;;;;;4989592;28;20080;-73
2022/08/14 05:28:08;;;;;;;4.47;3.15;;;17.80;79.70;;;;;;4983665;28;20110;-73
2022/08/14 05:30:34;;;;;;;5.57;2.88;;;17.80;79.10;;;;;;4986260;28;20026;-74
2022/08/14 05:33:00;;;;;;;5.05;3.17;;;17.90;78.70;;;;;;4988682;28;20467;-74
2022/08/14 05:35:26;;;;;;;5.00;3.15;;;17.90;78.80;;;;;;4986757;28;20030;-73
2022/08/14 05:37:52;;;;;;;5.28;3.22;;;17.90;78.70;;;;;;4987655;28;20121;-73
2022/08/14 05:40:18;;;;;;;3.95;2.85;;;18.00;78.60;;;;;;4986535;28;20089;-73
2022/08/14 05:42:44;;;;;;;5.32;3.55;;;18.00;78.40;;;;;;4985671;28;20031;-74
2022/08/14 05:45:10;;;;;;;6.65;3.78;;;18.10;78.20;;;;;;4989009;28;20105;-73
2022/08/14 05:47:40;;;;;;;3.72;3.33;;;18.20;78.10;;;;;;4987980;28;20030;-73
2022/08/14 05:50:08;;;;;;;5.65;3.22;;;18.20;77.70;;;;;;4990645;28;20035;-73
2022/08/14 05:52:34;;;;;;;4.03;2.97;;;18.30;77.60;;;;;;4990109;28;20049;-72
2022/08/14 05:54:59;;;;;;;5.30;3.05;;;18.50;77.30;;;;;;4989840;28;20468;-72
2022/08/14 05:57:25;;;;;;;4.20;3.17;;;18.60;76.70;;;;;;4985628;28;20029;-73
2022/08/14 05:59:51;;;;;;;3.25;2.47;;;18.80;76.20;;;;;;4987296;28;20022;-73
2022/08/14 06:02:17;;;;;;;5.90;3.08;;;19.00;76.00;;;;;;4988560;28;20426;-73
2022/08/14 06:04:47;;;;;;;3.42;3.13;;;19.10;75.50;;;;;;4990588;28;20026;-73
2022/08/14 06:07:13;;;;;;;3.78;2.85;;;19.20;74.80;;;;;;4986749;28;20026;-73
2022/08/14 06:09:39;;;;;;;3.65;2.90;;;19.40;74.50;;;;;;4986248;28;20036;-73
2022/08/14 06:12:05;;;;;;;3.90;2.50;;;19.40;74.10;;;;;;4988295;28;20114;-74
2022/08/14 06:14:31;;;;;;;3.85;2.85;;;19.50;73.90;;;;;;4986154;28;20030;-74
2022/08/14 06:16:57;;;;;;;5.18;2.88;;;19.50;73.80;;;;;;4989067;28;20038;-74
2022/08/14 06:19:22;;;;;;;7.15;3.40;;;19.50;73.50;;;;;;4986503;28;20030;-74
2022/08/14 06:21:48;;;;;;;4.88;2.90;;;19.60;73.40;;;;;;4989112;28;20030;-74
2022/08/14 06:24:13;;;;;;;4.25;2.70;;;19.60;73.40;;;;;;4985404;28;20030;-75
2022/08/14 06:26:39;;;;;;;5.65;3.30;;;19.60;73.30;;;;;;4991267;28;20476;-70
2022/08/14 06:29:09;;;;;;;4.13;3.08;;;19.60;73.00;;;;;;4987998;28;20034;-69
2022/08/14 06:31:34;;;;;;;5.38;3.15;;;19.50;73.00;;;;;;4986910;28;20371;-69
2022/08/14 06:34:00;;;;;;;3.03;2.78;;;19.60;72.90;;;;;;4987143;28;20117;-71
2022/08/14 06:36:25;;;;;;;5.97;3.33;;;19.50;73.30;;;;;;4984280;28;20499;-69
2022/08/14 06:38:52;;;;;;;4.18;3.72;;;19.50;73.20;;;;;;4987476;28;20035;-71
2022/08/14 06:41:18;;;;;;;6.18;3.20;;;19.40;73.30;;;;;;4988771;28;20029;-69
2022/08/14 06:43:43;;;;;;;5.65;3.53;;;19.20;73.70;;;;;;4992282;28;20168;-71
2022/08/14 06:46:09;;;;;;;5.22;3.53;;;19.20;73.80;;;;;;4993998;28;20022;-70
2022/08/14 06:48:35;;;;;;;4.18;2.92;;;19.10;74.20;;;;;;4992905;28;20122;-72
2022/08/14 06:51:00;;;;;;;3.97;3.40;;;19.20;74.20;;;;;;4994130;28;20026;-70
2022/08/14 06:53:26;;;;;;;3.45;2.72;;;19.20;74.40;;;;;;4994241;28;20061;-71
2022/08/14 06:55:52;;;;;;;4.00;3.10;;;19.20;74.40;;;;;;4994201;28;20443;-70
2022/08/14 06:58:20;;;;;;;5.93;3.63;;;19.30;74.40;;;;;;4993823;28;20114;-70
2022/08/14 07:06:14;;;;;;;3.08;2.47;;;19.50;72.90;;;;;;4987973;28;19983;-72
2022/08/14 07:08:41;;;;;;;3.85;2.65;;;19.60;72.80;;;;;;4990301;28;20062;-72
2022/08/14 07:11:07;;;;;;;4.15;2.50;;;19.60;72.70;;;;;;4991339;28;20041;-72
2022/08/14 07:13:32;;;;;;;3.40;2.75;;;19.60;72.90;;;;;;4991240;28;20030;-71
2022/08/14 07:15:59;;;;;;;4.38;3.13;;;19.70;73.00;;;;;;4986407;28;20067;-71
2022/08/14 07:18:34;;;;;;;4.05;2.63;;;19.80;73.20;;;;;;4987376;28;20035;-71
2022/08/14 07:21:01;;;;;;;2.75;2.55;;;19.90;73.10;;;;;;4989850;28;20403;-71
2022/08/14 07:23:27;;;;;;;3.70;3.03;;;20.00;73.00;;;;;;4991907;28;20026;-71
2022/08/14 07:25:57;;;;;;;3.80;2.85;;;20.10;72.50;;;;;;4986352;28;20023;-72
2022/08/14 07:28:33;;;;;;;4.50;3.22;;;20.20;72.40;;;;;;4987676;28;20034;-72
2022/08/14 07:31:00;;;;;;;4.88;2.67;;;20.40;72.60;;;;;;4989964;28;20034;-72
2022/08/14 07:33:30;;;;;;;4.22;3.05;;;20.50;72.20;;;;;;4989198;28;20027;-71
2022/08/14 07:36:00;;;;;;;9.38;2.50;;;20.60;72.00;;;;;;4987734;28;20133;-72
2022/08/14 07:38:29;;;;;;;3.92;2.55;;;20.70;71.80;;;;;;4986210;28;20151;-71
2022/08/14 07:40:55;;;;;;;3.42;2.60;;;20.80;71.70;;;;;;4986147;28;20033;-75
2022/08/14 07:43:21;;;;;;;5.75;2.67;;;20.90;71.60;;;;;;4991161;28;20023;-75
2022/08/14 07:45:47;;;;;;;4.55;2.60;;;21.00;71.50;;;;;;4993431;28;20403;-76
2022/08/14 07:48:13;;;;;;;3.30;2.60;;;21.10;71.30;;;;;;4993719;28;20030;-76
2022/08/14 07:50:39;;;;;;;3.78;2.78;;;21.20;71.30;;;;;;5008890;28;20029;-76
2022/08/14 07:53:05;;;;;;;4.50;2.92;;;21.20;71.30;;;;;;4993947;28;20035;-77
2022/08/14 07:55:32;;;;;;;3.47;2.90;;;21.30;71.10;;;;;;4995449;28;20022;-76
2022/08/14 07:57:58;;;;;;;5.35;3.03;;;21.40;71.20;;;;;;4996666;28;20390;-76
2022/08/14 08:00:25;;;;;;;4.28;2.80;;;21.50;71.10;;;;;;4997635;28;20117;-75
2022/08/14 08:02:53;;;;;;;4.78;2.55;;;21.60;70.60;;;;;;4997518;28;20014;-76
2022/08/14 08:05:20;;;;;;;8.57;3.53;;;21.70;70.40;;;;;;4996326;28;20502;-76
2022/08/14 08:07:47;;;;;;;4.30;2.60;;;21.90;70.20;;;;;;4997198;28;20434;-76
2022/08/14 08:10:33;;;;;;;4.43;2.65;;;21.90;70.20;;;;;;4996328;28;20030;-76
2022/08/14 08:13:03;;;;;;;4.47;2.80;;;22.00;70.80;;;;;;4997040;28;20019;-75
2022/08/14 08:15:31;;;;;;;2.50;2.30;;;22.10;70.60;;;;;;4997132;28;20487;-76
2022/08/14 08:18:03;;;;;;;3.47;2.45;;;22.20;69.90;;;;;;4992702;28;20414;-75
2022/08/14 08:20:29;;;;;;;3.45;2.08;;;22.30;69.70;;;;;;4992063;28;20034;-73
2022/08/14 08:22:57;;;;;;;3.28;2.53;;;22.30;69.50;;;;;;4997122;28;20041;-75
2022/08/14 08:25:35;;;;;;;4.63;2.75;;;22.40;69.50;;;;;;4996636;28;20015;-75
2022/08/14 08:28:30;;;;;;;5.10;2.70;;;22.50;69.30;;;;;;4988982;28;20027;-75
2022/08/14 08:31:05;;;;;;;4.30;2.50;;;22.60;68.90;;;;;;4977241;28;20023;-76
2022/08/14 08:33:34;;;;;;;2.95;2.67;;;22.80;68.10;;;;;;4976495;28;20046;-75
2022/08/14 08:36:04;;;;;;;3.75;2.42;;;22.90;68.30;;;;;;4977185;28;20034;-75
2022/08/14 08:38:30;;;;;;;3.65;2.33;;;23.00;67.90;;;;;;4976074;28;20038;-75
2022/08/14 08:40:57;;;;;;;2.83;2.55;;;23.10;67.00;;;;;;4982355;28;20026;-75
2022/08/14 08:43:23;;;;;;;4.75;2.30;;;23.20;67.00;;;;;;4996432;28;20019;-75
2022/08/14 08:45:59;;;;;;;3.88;2.40;;;23.30;67.10;;;;;;4996481;28;20494;-75
2022/08/14 08:48:29;;;;;;;4.30;2.80;;;23.40;66.90;;;;;;4995471;28;20037;-75
2022/08/14 08:50:57;;;;;;;2.72;2.20;;;23.60;66.80;;;;;;4995583;28;20035;-76
2022/08/14 08:53:29;;;;;;;4.35;2.47;;;23.60;65.90;;;;;;4995319;28;20026;-76
2022/08/14 08:55:55;;;;;;;3.08;2.00;;;23.70;64.50;;;;;;4996879;28;20062;-76
2022/08/14 08:58:21;;;;;;;2.75;1.73;;;23.90;60.20;;;;;;4996648;28;20408;-76
2022/08/14 09:00:52;;;;;;;3.80;1.80;;;24.10;58.30;;;;;;4996041;28;20026;-75
2022/08/14 09:03:20;;;;;;;2.10;1.90;;;24.30;57.20;;;;;;4995788;28;20022;-76
2022/08/14 09:05:54;;;;;;;3.40;1.73;;;24.60;56.40;;;;;;4995271;28;20022;-76
2022/08/14 09:08:27;;;;;;;2.25;1.85;;;24.70;55.90;;;;;;4995936;28;20026;-75
2022/08/14 09:10:54;;;;;;;5.00;2.38;;;24.90;55.80;;;;;;4996354;28;20023;-76
2022/08/14 09:13:25;;;;;;;2.08;1.88;;;24.90;55.50;;;;;;4997383;28;20048;-76
2022/08/14 09:15:52;;;;;;;3.78;2.00;;;25.10;55.00;;;;;;4991030;28;20015;-76
2022/08/14 09:18:20;;;;;;;2.63;1.70;;;25.20;54.00;;;;;;4977823;28;20376;-76
2022/08/14 09:20:49;;;;;;;6.30;2.13;;;25.30;54.50;;;;;;4979749;28;20026;-76
2022/08/14 09:23:15;;;;;;;3.95;1.85;;;25.30;54.20;;;;;;4979550;28;20038;-76
2022/08/14 09:25:44;;;;;;;2.10;1.90;;;25.40;53.60;;;;;;4979434;28;20109;-76
2022/08/14 09:28:11;;;;;;;2.25;2.05;;;25.50;53.00;;;;;;4979684;28;20073;-76
2022/08/14 09:30:41;;;;;;;2.65;1.67;;;25.60;52.70;;;;;;4979937;28;20546;-76
2022/08/14 09:33:17;;;;;;;2.08;1.70;;;25.60;52.70;;;;;;4986798;28;20026;-76
2022/08/14 09:36:19;;;;;;;2.92;1.77;;;25.70;52.40;;;;;;4983551;28;20042;-76
2022/08/14 09:39:24;;;;;;;2.20;1.70;;;25.80;51.80;;;;;;4989324;28;20070;-74
2022/08/14 09:42:08;;;;;;;;;;;25.90;51.10;;;;;;5001403;28;20038;-76
2022/08/14 09:44:43;;;;;;;2.05;1.58;;;26.00;50.50;;;;;;4986297;28;19906;-75
2022/08/14 09:47:09;;;;;;;2.67;1.60;;;26.10;50.90;;;;;;4978970;28;20018;-76
2022/08/14 09:49:37;;;;;;;2.53;1.60;;;26.20;50.10;;;;;;4977453;28;20511;-76
2022/08/14 09:52:09;;;;;;;1.48;1.35;;;26.20;50.00;;;;;;4978439;28;20559;-76
2022/08/14 09:54:46;;;;;;;3.00;1.52;;;26.30;49.60;;;;;;4990193;28;20375;-74
2022/08/14 09:57:29;;;;;;;2.35;1.50;;;26.30;49.30;;;;;;4994737;28;20026;-75
2022/08/14 09:59:55;;;;;;;2.23;1.70;;;26.40;49.90;;;;;;4995535;28;20034;-75
2022/08/14 10:02:23;;;;;;;2.17;1.48;;;26.40;49.40;;;;;;4986979;28;20023;-75
2022/08/14 10:05:10;;;;;;;2.75;1.45;;;26.40;49.40;;;;;;4995342;28;20110;-75
2022/08/14 10:07:51;;;;;;;2.83;1.40;;;26.50;49.70;;;;;;4952904;28;20415;-74
2022/08/14 10:10:32;;;;;;;1.50;1.40;;;26.50;49.20;;;;;;4997229;28;20019;-75
2022/08/14 10:13:00;;;;;;;3.67;1.35;;;26.50;48.60;;;;;;4995308;28;20030;-75
2022/08/14 10:15:29;;;;;;;2.70;1.30;;;26.60;48.20;;;;;;4994362;28;20026;-75
2022/08/14 10:18:11;;;;;;;2.90;1.27;;;26.60;47.90;;;;;;4994308;28;20030;-75
2022/08/14 10:20:41;;;;;;;2.13;1.30;;;26.70;45.80;;;;;;4990588;28;20089;-75
2022/08/14 10:23:10;;;;;;;1.80;1.45;;;26.70;46.60;;;;;;4982314;28;20038;-73
2022/08/14 10:25:43;;;;;;;2.13;1.50;;;26.70;47.30;;;;;;4986168;28;20050;-75
2022/08/14 10:28:14;;;;;;;2.90;1.33;;;26.80;47.60;;;;;;4998884;28;20080;-75
2022/08/14 10:30:41;;;;;;;3.08;1.13;;;26.80;47.30;;;;;;4994472;28;20027;-74
2022/08/14 10:33:06;;;;;;;1.45;1.10;;;26.90;46.80;;;;;;4993071;28;20026;-75
2022/08/14 10:35:42;;;;;;;1.58;1.35;;;26.90;46.20;;;;;;4994272;28;20031;-75
2022/08/14 10:38:09;;;;;;;1.42;1.15;;;26.90;46.40;;;;;;4989277;28;20160;-73
2022/08/14 10:40:35;;;;;;;2.05;1.55;;;26.90;46.60;;;;;;4993168;28;20033;-75
2022/08/14 10:43:02;;;;;;;2.65;1.52;;;26.90;46.50;;;;;;4975894;28;20035;-72
2022/08/14 10:45:32;;;;;;;3.05;1.25;;;27.00;46.60;;;;;;4975345;28;20146;-72
2022/08/14 10:48:00;;;;;;;1.40;1.30;;;27.20;45.50;;;;;;4974048;28;20050;-73
2022/08/14 10:50:33;;;;;;;1.67;1.20;;;27.10;45.90;;;;;;4974800;28;20046;-73
2022/08/14 10:53:00;;;;;;;;;;;27.20;46.60;;;;;;4975733;28;20030;-73
2022/08/14 10:55:39;;;;;;;1.40;1.10;;;27.30;46.50;;;;;;4974436;28;19906;-73
2022/08/14 10:58:12;;;;;;;1.48;1.27;;;27.30;46.50;;;;;;4975044;28;20382;-73
2022/08/14 11:00:40;;;;;;;2.38;1.60;;;27.30;46.50;;;;;;4973947;28;20514;-72
2022/08/14 11:03:16;;;;;;;2.10;1.23;;;27.30;46.40;;;;;;4973154;28;20050;-74
2022/08/14 11:05:48;;;;;;;3.08;1.30;;;27.30;46.00;;;;;;4979892;28;20101;-74
2022/08/14 11:08:16;;;;;;;1.55;1.27;;;27.40;46.50;;;;;;4992805;28;20034;-75
2022/08/14 11:10:45;;;;;;;1.73;1.27;;;27.40;46.60;;;;;;4992994;28;20030;-72
2022/08/14 11:13:23;;;;;;;3.63;1.52;;;27.40;46.60;;;;;;4994478;28;20034;-71
2022/08/14 11:15:49;;;;;;;1.40;1.23;;;27.40;45.40;;;;;;4994258;28;20483;-72
2022/08/14 11:18:16;;;;;;;1.40;1.30;;;27.40;46.10;;;;;;4994333;28;20057;-73
2022/08/14 11:20:55;;;;;;;1.50;1.40;;;27.40;45.80;;;;;;4993739;28;20023;-74
2022/08/14 11:23:29;;;;;;;2.25;1.20;;;27.50;45.60;;;;;;4992974;28;20518;-73
2022/08/14 11:25:57;;;;;;;1.73;1.20;;;27.50;45.40;;;;;;4994011;28;20022;-73
2022/08/14 11:28:25;;;;;;;1.42;1.33;;;27.60;45.30;;;;;;4981905;28;20022;-73
2022/08/14 11:30:52;;;;;;;3.00;1.75;;;27.60;45.20;;;;;;5000226;28;20045;-73
2022/08/14 11:33:28;;;;;;;1.73;1.63;;;27.60;45.40;;;;;;4974351;28;20384;-73
2022/08/14 11:35:54;;;;;;;1.35;1.20;;;27.60;45.20;;;;;;4973145;28;20439;-72
2022/08/14 11:38:20;;;;;;;1.90;1.48;;;27.70;45.30;;;;;;4974406;28;20057;-73
2022/08/14 11:40:48;;;;;;;3.05;1.52;;;27.70;45.30;;;;;;4973245;28;20027;-72
2022/08/14 11:43:15;;;;;;;2.83;1.80;;;27.60;45.40;;;;;;4977775;28;20026;-73
2022/08/14 11:45:46;;;;;;;2.95;1.90;;;27.60;45.80;;;;;;4990989;28;20391;-74
2022/08/14 11:48:16;;;;;;;2.00;1.60;;;27.70;45.80;;;;;;4988769;28;20631;-73
2022/08/14 11:50:42;;;;;;;3.63;1.35;;;27.80;45.90;;;;;;4990805;28;20026;-74
2022/08/14 11:53:20;;;;;;;3.17;1.30;;;27.80;45.90;;;;;;4984412;28;20030;-74
2022/08/14 11:55:46;;;;;;;5.18;1.75;;;27.80;46.20;;;;;;4986500;28;20023;-74
2022/08/14 11:58:15;;;;;;;2.15;1.77;;;27.80;46.00;;;;;;4993493;28;20033;-74
2022/08/14 12:00:52;;;;;;;1.67;1.23;;;27.90;46.20;;;;;;4974184;28;20114;-73
2022/08/14 12:03:19;;;;;;;2.45;1.85;;;27.80;46.60;;;;;;4974071;28;20027;-73
2022/08/14 12:05:45;;;;;;;2.38;1.95;;;27.80;46.80;;;;;;4988096;28;20027;-74
2022/08/14 12:08:11;;;;;;;2.70;1.70;;;27.80;47.20;;;;;;4994448;28;20050;-74
2022/08/14 12:10:39;;;;;;;2.40;2.00;;;27.80;47.10;;;;;;4990912;28;21337;-74
2022/08/14 12:13:14;;;;;;;1.83;1.70;;;27.90;46.60;;;;;;4989459;28;20437;-74
2022/08/14 12:15:42;;;;;;;2.38;1.50;;;27.90;45.80;;;;;;4982885;28;20029;-74
2022/08/14 12:18:08;;;;;;;4.32;1.55;;;28.00;45.70;;;;;;4974820;28;20030;-74
2022/08/14 12:20:36;;;;;;;1.85;1.48;;;28.10;45.60;;;;;;4989050;28;20035;-74
2022/08/14 12:23:04;;;;;;;2.47;1.70;;;28.10;45.20;;;;;;4974677;28;20041;-73
2022/08/14 12:25:30;;;;;;;1.65;1.50;;;28.20;45.10;;;;;;4975567;28;20102;-73
2022/08/14 12:27:59;;;;;;;1.77;1.67;;;28.30;44.80;;;;;;4978139;28;20030;-74
2022/08/14 12:30:32;;;;;;;2.33;2.13;;;28.30;44.10;;;;;;4993138;28;20057;-76
2022/08/14 12:32:58;;;;;;;3.13;2.50;;;28.30;43.00;;;;;;4991485;28;20102;-74
2022/08/14 12:35:44;;;;;;;4.47;2.40;;;28.40;43.10;;;;;;4983218;28;20125;-74
2022/08/14 12:38:12;;;;;;;2.05;1.75;;;28.40;43.30;;;;;;4989768;28;20042;-74
2022/08/14 12:40:49;;;;;;;2.10;1.90;;;28.40;43.20;;;;;;4989024;28;20053;-74
2022/08/14 12:43:17;;;;;;;2.75;1.90;;;28.40;43.00;;;;;;4991911;28;20495;-73
2022/08/14 12:45:50;;;;;;;2.88;2.10;;;28.40;43.20;;;;;;4987068;28;20018;-72
2022/08/14 12:48:18;;;;;;;2.55;1.98;;;28.40;43.20;;;;;;4991918;28;20031;-73
2022/08/14 12:50:44;;;;;;;1.80;1.67;;;28.40;43.40;;;;;;4994921;28;20108;-72
2022/08/14 12:53:11;;;;;;;1.92;1.83;;;28.40;43.20;;;;;;4990763;28;20034;-73
2022/08/14 12:55:43;;;;;;;2.75;2.00;;;28.40;43.30;;;;;;4990871;28;20023;-73
2022/08/14 12:58:09;;;;;;;2.88;2.22;;;28.40;43.80;;;;;;4989674;28;20553;-73
2022/08/14 13:00:49;;;;;;;2.47;2.28;;;28.40;44.00;;;;;;4991701;28;20048;-73
2022/08/14 13:03:26;;;;;;;2.30;1.80;;;28.40;44.30;;;;;;4990041;28;20057;-73
2022/08/14 13:05:53;;;;;;;2.28;1.73;;;28.40;43.60;;;;;;4990499;28;20035;-72
2022/08/14 13:08:21;;;;;;;2.35;1.85;;;28.40;43.80;;;;;;5003784;28;20026;-73
2022/08/14 13:10:48;;;;;;;3.17;2.28;;;28.40;43.70;;;;;;4988720;28;20019;-72
2022/08/14 13:13:19;;;;;;;2.38;2.17;;;28.40;43.90;;;;;;4990359;28;20019;-72